createdAt,value
2022-11-17T00:00:33.677Z,11.60
2022-11-17T00:03:04.939Z,11.50
2022-11-17T00:05:32.522Z,12.60
2022-11-17T00:08:00.075Z,11.90
2022-11-17T00:10:27.636Z,12.00
2022-11-17T00:12:55.232Z,12.10
2022-11-17T00:15:23.012Z,11.90
2022-11-17T00:17:51.433Z,11.80
2022-11-17T00:20:19.140Z,11.70
2022-11-17T00:22:46.770Z,11.60
2022-11-17T00:25:14.470Z,10.80
2022-11-17T00:27:42.070Z,11.10
2022-11-17T00:30:09.986Z,11.10
2022-11-17T00:32:37.657Z,11.40
2022-11-17T00:35:06.203Z,12.10
2022-11-17T00:37:37.038Z,11.60
2022-11-17T00:40:05.873Z,10.80
2022-11-17T00:42:33.473Z,11.20
2022-11-17T00:45:01.116Z,12.20
2022-11-17T00:47:28.660Z,11.50
2022-11-17T00:49:56.229Z,11.30
2022-11-17T00:52:23.775Z,12.50
2022-11-17T00:54:51.343Z,12.30
2022-11-17T00:57:19.018Z,12.10
2022-11-17T00:59:46.609Z,10.70
2022-11-17T01:02:14.182Z,12.40
2022-11-17T01:04:41.820Z,11.50
2022-11-17T01:07:09.600Z,10.80
2022-11-17T01:09:37.211Z,11.60
2022-11-17T01:12:05.015Z,12.10
2022-11-17T01:14:32.560Z,12.90
2022-11-17T01:17:00.279Z,11.40
2022-11-17T01:19:28.150Z,12.70
2022-11-17T01:21:55.837Z,12.80
2022-11-17T01:24:23.448Z,12.60
2022-11-17T01:26:51.068Z,14.30
2022-11-17T01:29:18.978Z,11.80
2022-11-17T01:31:50.726Z,12.80
2022-11-17T01:34:18.813Z,12.80
2022-11-17T01:36:46.426Z,14.40
2022-11-17T01:39:14.221Z,13.40
2022-11-17T01:41:41.828Z,14.30
2022-11-17T01:44:43.797Z,13.50
2022-11-17T01:49:44.482Z,12.20
2022-11-17T01:52:13.068Z,12.60
2022-11-17T01:54:43.349Z,14.10
2022-11-17T01:57:22.039Z,14.30
2022-11-17T01:59:56.925Z,15.80
2022-11-17T02:02:24.498Z,13.80
2022-11-17T02:05:12.415Z,12.80
2022-11-17T02:07:42.871Z,14.70
2022-11-17T02:10:10.944Z,14.50
2022-11-17T02:12:38.811Z,14.70
2022-11-17T02:15:07.074Z,15.70
2022-11-17T02:17:43.927Z,13.50
2022-11-17T02:20:22.593Z,14.50
2022-11-17T02:23:11.479Z,15.90
2022-11-17T02:25:42.175Z,14.10
2022-11-17T02:28:15.403Z,14.70
2022-11-17T02:30:58.456Z,15.80
2022-11-17T02:33:37.101Z,15.30
2022-11-17T02:36:14.407Z,14.60
2022-11-17T02:38:53.003Z,15.20
2022-11-17T02:41:29.574Z,15.00
2022-11-17T02:44:04.033Z,14.20
2022-11-17T02:46:46.842Z,14.50
2022-11-17T02:49:26.278Z,14.60
2022-11-17T02:51:58.687Z,14.90
2022-11-17T02:54:29.451Z,15.70
2022-11-17T02:56:57.026Z,14.70
2022-11-17T02:59:33.512Z,14.00
2022-11-17T03:02:07.276Z,13.60
2022-11-17T03:04:59.916Z,12.00
2022-11-17T03:07:46.314Z,14.60
2022-11-17T03:10:25.650Z,14.30
2022-11-17T03:13:04.131Z,14.30
2022-11-17T03:15:43.135Z,14.40
2022-11-17T03:18:49.199Z,15.10
2022-11-17T03:21:26.748Z,12.60
2022-11-17T03:24:21.212Z,12.80
2022-11-17T03:26:56.439Z,12.20
2022-11-17T03:29:27.706Z,13.20
2022-11-17T03:32:00.556Z,14.50
2022-11-17T03:34:33.037Z,13.90
2022-11-17T03:37:05.842Z,12.20
2022-11-17T03:39:41.390Z,14.60
2022-11-17T03:42:18.669Z,14.00
2022-11-17T03:44:52.795Z,13.30
2022-11-17T03:47:23.723Z,13.30
2022-11-17T03:49:54.878Z,15.30
2022-11-17T03:52:22.840Z,12.90
2022-11-17T03:54:51.331Z,13.60
2022-11-17T03:57:27.667Z,14.10
2022-11-17T03:59:59.187Z,15.90
2022-11-17T04:04:54.807Z,13.40
2022-11-17T04:07:22.425Z,13.20
2022-11-17T04:09:50.035Z,15.70
2022-11-17T04:12:17.610Z,14.30
2022-11-17T04:14:45.163Z,14.40
2022-11-17T04:17:12.892Z,13.20
2022-11-17T04:19:40.444Z,14.50
2022-11-17T04:22:08.091Z,13.60
2022-11-17T04:24:35.654Z,13.40
2022-11-17T04:27:03.212Z,13.80
2022-11-17T04:29:31.024Z,14.70
2022-11-17T04:31:58.620Z,14.00
2022-11-17T04:34:26.594Z,13.80
2022-11-17T04:36:54.148Z,13.10
2022-11-17T04:39:21.733Z,12.60
2022-11-17T04:41:49.282Z,13.30
2022-11-17T04:44:17.842Z,12.40
2022-11-17T04:46:45.727Z,12.60
2022-11-17T04:49:15.256Z,14.10
2022-11-17T04:51:42.922Z,13.40
2022-11-17T04:54:13.142Z,14.70
2022-11-17T04:56:41.197Z,14.50
2022-11-17T04:59:09.177Z,12.70
2022-11-17T05:01:37.207Z,12.80
2022-11-17T05:04:09.971Z,12.60
2022-11-17T05:06:45.284Z,13.20
2022-11-17T05:09:15.718Z,13.30
2022-11-17T05:11:43.978Z,13.90
2022-11-17T05:14:12.968Z,14.30
2022-11-17T05:16:41.388Z,13.50
2022-11-17T05:19:14.515Z,12.80
2022-11-17T05:21:42.495Z,13.10
2022-11-17T05:24:10.244Z,13.30
2022-11-17T05:26:38.364Z,11.60
2022-11-17T05:29:07.731Z,12.70
2022-11-17T05:31:35.625Z,12.70
2022-11-17T05:34:05.067Z,13.30
2022-11-17T05:36:33.740Z,13.20
2022-11-17T05:39:01.803Z,11.80
2022-11-17T05:41:29.474Z,11.40
2022-11-17T05:43:57.929Z,12.40
2022-11-17T05:46:26.212Z,11.70
2022-11-17T05:48:54.089Z,10.50
2022-11-17T05:51:24.095Z,8.70
2022-11-17T05:53:51.673Z,13.00
2022-11-17T05:56:45.113Z,13.60
2022-11-17T05:59:36.619Z,12.70
2022-11-17T06:02:11.496Z,13.10
2022-11-17T06:04:39.611Z,14.20
2022-11-17T06:07:07.566Z,13.50
2022-11-17T06:09:38.941Z,13.70
2022-11-17T06:12:06.829Z,13.90
2022-11-17T06:14:35.372Z,12.60
2022-11-17T06:17:09.346Z,10.50
2022-11-17T06:19:46.637Z,11.40
2022-11-17T06:22:14.577Z,13.00
2022-11-17T06:24:43.732Z,12.20
2022-11-17T06:27:15.005Z,13.10
2022-11-17T06:29:44.958Z,12.20
2022-11-17T06:32:14.910Z,12.10
2022-11-17T06:34:47.968Z,12.30
2022-11-17T06:37:18.109Z,11.90
2022-11-17T06:39:45.807Z,12.90
2022-11-17T06:42:13.379Z,11.90
2022-11-17T06:44:40.987Z,12.90
2022-11-17T06:47:08.584Z,14.30
2022-11-17T06:49:36.163Z,14.40
2022-11-17T06:52:03.819Z,13.70
2022-11-17T06:54:31.511Z,12.90
2022-11-17T06:56:59.201Z,12.30
2022-11-17T06:59:26.914Z,12.60
2022-11-17T07:01:54.564Z,13.30
2022-11-17T07:04:22.230Z,12.40
2022-11-17T07:06:50.332Z,12.70
2022-11-17T07:09:18.126Z,12.10
2022-11-17T07:11:45.790Z,11.90
2022-11-17T07:14:13.449Z,11.60
2022-11-17T07:16:42.212Z,11.60
2022-11-17T07:19:10.643Z,12.20
2022-11-17T07:21:38.457Z,12.70
2022-11-17T07:24:06.428Z,11.70
2022-11-17T07:26:34.166Z,12.70
2022-11-17T07:29:04.487Z,11.50
2022-11-17T07:31:35.079Z,11.20
2022-11-17T07:34:06.128Z,9.50
2022-11-17T07:36:33.729Z,11.20
2022-11-17T07:39:01.441Z,10.30
2022-11-17T07:41:29.109Z,10.90
2022-11-17T07:43:56.776Z,9.00
2022-11-17T07:46:24.911Z,9.40
2022-11-17T07:48:55.727Z,10.50
2022-11-17T07:51:23.421Z,11.70
2022-11-17T07:53:51.061Z,12.20
2022-11-17T07:56:18.853Z,10.60
2022-11-17T07:58:46.479Z,11.60
2022-11-17T08:01:15.041Z,10.50
2022-11-17T08:03:45.918Z,12.60
2022-11-17T08:06:13.708Z,11.70
2022-11-17T08:08:41.446Z,11.40
2022-11-17T08:11:11.797Z,12.20
2022-11-17T08:13:40.571Z,12.10
2022-11-17T08:16:10.154Z,10.40
2022-11-17T08:18:39.406Z,12.00
2022-11-17T08:21:13.016Z,10.50
2022-11-17T08:23:41.958Z,12.20
2022-11-17T08:26:11.863Z,11.50
2022-11-17T08:28:39.877Z,12.20
2022-11-17T08:31:08.590Z,9.70
2022-11-17T08:33:36.359Z,11.10
2022-11-17T08:36:05.410Z,11.30
2022-11-17T08:38:34.357Z,10.40
2022-11-17T08:41:07.827Z,9.80
2022-11-17T08:43:35.955Z,10.40
2022-11-17T08:46:04.171Z,10.60
2022-11-17T08:48:31.884Z,11.00
2022-11-17T08:51:05.525Z,10.60
2022-11-17T08:53:33.240Z,7.40
2022-11-17T08:56:00.907Z,9.30
2022-11-17T08:58:28.597Z,10.90
2022-11-17T09:01:00.950Z,9.40
2022-11-17T09:03:31.779Z,9.50
2022-11-17T09:05:59.459Z,9.40
2022-11-17T09:08:56.967Z,8.70
2022-11-17T09:11:15.369Z,8.70
2022-11-17T09:13:43.037Z,8.30
2022-11-17T09:16:11.978Z,8.40
2022-11-17T09:18:41.137Z,6.40
2022-11-17T09:21:15.957Z,6.80
2022-11-17T09:23:44.735Z,7.20
2022-11-17T09:26:15.681Z,7.70
2022-11-17T09:28:45.409Z,8.90
2022-11-17T09:31:18.228Z,9.00
2022-11-17T09:33:46.225Z,8.10
2022-11-17T09:36:16.076Z,8.40
2022-11-17T09:38:44.075Z,8.60
2022-11-17T09:41:38.603Z,8.80
2022-11-17T09:44:15.110Z,8.10
2022-11-17T09:47:01.075Z,9.00
2022-11-17T09:49:53.640Z,8.50
2022-11-17T09:52:43.719Z,8.60
2022-11-17T09:55:22.535Z,7.60
2022-11-17T09:58:01.001Z,8.10
2022-11-17T10:00:29.044Z,7.80
2022-11-17T10:02:56.674Z,9.10
2022-11-17T10:05:33.854Z,7.20
2022-11-17T10:08:12.770Z,8.60
2022-11-17T10:10:47.083Z,8.60
2022-11-17T10:13:33.121Z,8.40
2022-11-17T10:16:05.071Z,7.10
2022-11-17T10:18:38.090Z,8.10
2022-11-17T10:21:08.120Z,6.20
2022-11-17T10:23:46.834Z,7.80
2022-11-17T10:26:16.175Z,7.30
2022-11-17T10:28:47.445Z,7.80
2022-11-17T10:31:22.975Z,7.50
2022-11-17T10:33:53.017Z,7.60
2022-11-17T10:36:34.876Z,8.20
2022-11-17T10:39:03.476Z,8.10
2022-11-17T10:41:39.207Z,7.60
2022-11-17T10:44:21.714Z,7.90
2022-11-17T10:47:02.592Z,8.50
2022-11-17T10:49:36.277Z,8.40
2022-11-17T10:52:09.792Z,7.50
2022-11-17T10:54:38.372Z,7.00
2022-11-17T10:57:12.395Z,7.30
2022-11-17T10:59:56.509Z,6.90
2022-11-17T11:02:39.065Z,7.20
2022-11-17T11:08:21.382Z,6.60
2022-11-17T11:11:17.801Z,6.40
2022-11-17T11:14:16.296Z,6.80
2022-11-17T11:16:48.505Z,7.40
2022-11-17T11:19:19.336Z,7.50
2022-11-17T11:22:00.825Z,6.60
2022-11-17T11:24:49.187Z,6.70
2022-11-17T11:27:50.918Z,6.00
2022-11-17T11:30:19.732Z,5.90
2022-11-17T11:33:06.133Z,6.80
2022-11-17T11:35:44.932Z,6.40
2022-11-17T11:38:30.956Z,5.70
2022-11-17T11:41:10.481Z,6.40
2022-11-17T11:43:52.318Z,6.60
2022-11-17T11:46:20.563Z,7.80
2022-11-17T11:48:51.981Z,6.20
2022-11-17T11:51:28.747Z,5.70
2022-11-17T11:54:15.090Z,5.60
2022-11-17T11:56:44.239Z,6.20
2022-11-17T11:59:21.493Z,6.20
2022-11-17T12:01:55.317Z,7.10
2022-11-17T12:04:50.354Z,6.10
2022-11-17T12:07:36.214Z,6.60
2022-11-17T12:10:03.798Z,6.50
2022-11-17T12:12:39.079Z,6.50
2022-11-17T12:15:30.343Z,5.30
2022-11-17T12:18:02.437Z,5.50
2022-11-17T12:20:39.222Z,6.30
2022-11-17T12:23:28.825Z,6.30
2022-11-17T12:25:59.970Z,5.80
2022-11-17T12:28:29.427Z,6.40
2022-11-17T12:31:02.583Z,5.90
2022-11-17T12:33:51.399Z,5.60
2022-11-17T12:36:30.203Z,7.20
2022-11-17T12:39:05.033Z,5.80
2022-11-17T12:41:54.496Z,6.90
2022-11-17T12:44:37.611Z,6.10
2022-11-17T12:47:13.930Z,5.60
2022-11-17T12:49:53.520Z,6.00
2022-11-17T12:53:00.111Z,6.30
2022-11-17T12:56:05.480Z,5.30
2022-11-17T12:58:48.556Z,5.90
2022-11-17T13:01:19.774Z,7.00
2022-11-17T13:04:01.235Z,6.90
2022-11-17T13:06:35.325Z,6.30
2022-11-17T13:09:10.554Z,5.80
2022-11-17T13:11:38.321Z,5.70
2022-11-17T13:14:17.149Z,5.40
2022-11-17T13:16:51.601Z,6.30
2022-11-17T13:19:39.427Z,5.80
2022-11-17T13:22:12.990Z,6.00
2022-11-17T13:24:43.711Z,5.70
2022-11-17T13:27:29.911Z,5.70
2022-11-17T13:30:15.217Z,5.90
2022-11-17T13:32:43.443Z,7.00
2022-11-17T13:35:26.230Z,6.60
2022-11-17T13:38:11.906Z,6.20
2022-11-17T13:40:41.602Z,5.80
2022-11-17T13:43:18.268Z,5.30
2022-11-17T13:45:47.435Z,3.80
2022-11-17T13:48:35.763Z,6.50
2022-11-17T13:51:18.521Z,7.50
2022-11-17T13:53:50.202Z,7.00
2022-11-17T13:56:39.227Z,6.40
2022-11-17T13:59:30.228Z,5.60
2022-11-17T14:02:16.466Z,7.30
2022-11-17T14:05:07.714Z,6.90
2022-11-17T14:07:39.471Z,8.00
2022-11-17T14:10:14.558Z,6.70
2022-11-17T14:12:42.524Z,6.80
2022-11-17T14:15:37.549Z,7.80
2022-11-17T14:18:28.224Z,6.80
2022-11-17T14:21:14.175Z,7.20
2022-11-17T14:23:43.041Z,6.40
2022-11-17T14:26:27.118Z,7.80
2022-11-17T14:28:54.740Z,6.50
2022-11-17T14:31:22.362Z,7.90
2022-11-17T14:33:50.385Z,6.80
2022-11-17T14:36:18.343Z,7.40
2022-11-17T14:38:46.638Z,8.60
2022-11-17T14:41:19.107Z,7.60
2022-11-17T14:43:47.729Z,7.60
2022-11-17T14:46:26.618Z,8.50
2022-11-17T14:48:54.587Z,7.90
2022-11-17T14:51:22.314Z,7.70
2022-11-17T14:53:50.231Z,10.10
2022-11-17T14:56:19.817Z,9.20
2022-11-17T14:58:48.838Z,9.50
2022-11-17T15:01:19.232Z,8.60
2022-11-17T15:03:46.901Z,8.00
2022-11-17T15:06:19.367Z,8.50
2022-11-17T15:08:52.717Z,12.70
2022-11-17T15:11:20.382Z,11.20
2022-11-17T15:13:48.029Z,11.20
2022-11-17T15:16:16.036Z,9.10
2022-11-17T15:18:47.907Z,10.60
2022-11-17T15:21:16.650Z,9.80
2022-11-17T15:23:44.589Z,11.30
2022-11-17T15:26:18.162Z,11.80
2022-11-17T15:28:46.698Z,13.00
2022-11-17T15:31:16.798Z,12.90
2022-11-17T15:33:46.267Z,13.10
2022-11-17T15:36:18.947Z,12.50
2022-11-17T15:38:46.820Z,12.40
2022-11-17T15:41:15.926Z,12.50
2022-11-17T15:43:44.545Z,13.10
2022-11-17T15:46:14.940Z,27.40
2022-11-17T15:48:44.055Z,28.00
2022-11-17T15:51:24.506Z,14.30
2022-11-17T15:53:56.046Z,44.70
2022-11-17T15:56:25.894Z,18.00
2022-11-17T15:59:01.971Z,13.40
2022-11-17T16:01:33.551Z,12.30
2022-11-17T16:06:31.483Z,11.10
2022-11-17T16:08:59.905Z,13.30
2022-11-17T16:11:27.917Z,12.80
2022-11-17T16:13:57.162Z,12.50
2022-11-17T16:16:30.820Z,13.20
2022-11-17T16:18:58.868Z,11.50
2022-11-17T16:21:26.955Z,11.40
2022-11-17T16:23:57.002Z,11.80
2022-11-17T16:26:26.096Z,12.60
2022-11-17T16:29:01.461Z,11.90
2022-11-17T16:31:31.833Z,13.80
2022-11-17T16:34:05.046Z,13.30
2022-11-17T16:36:37.301Z,13.70
2022-11-17T16:39:10.122Z,14.00
2022-11-17T16:41:39.764Z,13.60
2022-11-17T16:44:12.829Z,15.40
2022-11-17T16:46:45.865Z,13.60
2022-11-17T16:49:15.679Z,13.00
2022-11-17T16:51:53.480Z,13.50
2022-11-17T16:54:21.199Z,14.80
2022-11-17T16:56:49.519Z,18.00
2022-11-17T16:59:17.355Z,14.20
2022-11-17T17:01:47.944Z,12.90
2022-11-17T17:04:15.612Z,13.50
2022-11-17T17:06:44.441Z,12.50
2022-11-17T17:09:14.768Z,13.30
2022-11-17T17:14:13.430Z,12.50
2022-11-17T17:16:42.131Z,14.00
2022-11-17T17:19:11.467Z,14.80
2022-11-17T17:21:40.249Z,14.10
2022-11-17T17:24:09.237Z,15.00
2022-11-17T17:26:38.193Z,13.30
2022-11-17T17:29:06.719Z,13.80
2022-11-17T17:31:37.548Z,15.30
2022-11-17T17:34:06.586Z,13.00
2022-11-17T17:36:35.662Z,12.30
2022-11-17T17:39:03.890Z,12.90
2022-11-17T17:41:34.880Z,12.40
2022-11-17T17:44:04.837Z,13.60
2022-11-17T17:46:37.580Z,12.40
2022-11-17T17:49:06.094Z,13.30
2022-11-17T17:51:36.931Z,12.80
2022-11-17T17:54:04.645Z,14.20
2022-11-17T17:56:33.940Z,11.90
2022-11-17T17:59:01.709Z,13.00
2022-11-17T18:01:31.524Z,13.50
2022-11-17T18:04:02.212Z,13.60
2022-11-17T18:06:41.417Z,13.10
2022-11-17T18:09:10.949Z,13.60
2022-11-17T18:11:38.672Z,14.10
2022-11-17T18:14:06.281Z,12.30
2022-11-17T18:16:34.314Z,13.90
2022-11-17T18:19:04.422Z,12.30
2022-11-17T18:21:32.680Z,13.20
2022-11-17T18:24:02.291Z,11.00
2022-11-17T18:26:32.957Z,13.90
2022-11-17T18:29:19.200Z,12.30
2022-11-17T18:31:47.636Z,13.30
2022-11-17T18:34:18.688Z,12.90
2022-11-17T18:36:46.824Z,15.00
2022-11-17T18:39:15.435Z,14.50
2022-11-17T18:41:45.513Z,14.00
2022-11-17T18:44:15.200Z,14.60
2022-11-17T18:46:42.979Z,14.30
2022-11-17T18:49:10.751Z,14.70
2022-11-17T18:51:38.569Z,15.40
2022-11-17T18:54:06.495Z,15.20
2022-11-17T18:56:36.233Z,15.50
2022-11-17T18:59:06.004Z,15.20
2022-11-17T19:01:33.777Z,14.10
2022-11-17T19:04:01.506Z,14.60
2022-11-17T19:06:29.620Z,18.80
2022-11-17T19:08:58.849Z,15.10
2022-11-17T19:11:27.963Z,14.30
2022-11-17T19:13:55.663Z,14.10
2022-11-17T19:16:25.782Z,14.00
2022-11-17T19:18:55.581Z,16.80
2022-11-17T19:21:29.090Z,18.50
2022-11-17T19:23:59.264Z,19.50
2022-11-17T19:26:35.520Z,19.10
2022-11-17T19:29:11.157Z,18.60
2022-11-17T19:31:42.171Z,16.10
2022-11-17T19:34:09.793Z,18.10
2022-11-17T19:36:37.574Z,18.90
2022-11-17T19:39:05.483Z,17.60
2022-11-17T19:41:35.558Z,16.40
2022-11-17T19:44:06.411Z,14.90
2022-11-17T19:46:34.477Z,14.80
2022-11-17T19:49:03.596Z,15.20
2022-11-17T19:51:33.834Z,14.40
2022-11-17T19:54:03.282Z,14.70
2022-11-17T19:56:31.650Z,14.20
2022-11-17T19:58:59.371Z,15.10
2022-11-17T20:01:29.102Z,17.50
2022-11-17T20:03:57.960Z,15.80
2022-11-17T20:06:28.040Z,15.80
2022-11-17T20:08:56.665Z,13.10
2022-11-17T20:11:28.725Z,14.00
2022-11-17T20:13:56.623Z,13.90
2022-11-17T20:16:26.551Z,16.40
2022-11-17T20:18:56.789Z,15.10
2022-11-17T20:21:25.502Z,16.00
2022-11-17T20:23:54.602Z,15.90
2022-11-17T20:26:24.758Z,13.20
2022-11-17T20:28:54.226Z,14.40
2022-11-17T20:31:24.907Z,16.00
2022-11-17T20:33:55.148Z,17.40
2022-11-17T20:36:23.198Z,13.60
2022-11-17T20:38:55.981Z,14.90
2022-11-17T20:41:24.601Z,15.00
2022-11-17T20:43:55.015Z,16.00
2022-11-17T20:46:23.737Z,14.50
2022-11-17T20:48:53.587Z,13.30
2022-11-17T20:51:23.352Z,16.00
2022-11-17T20:53:51.425Z,15.10
2022-11-17T20:56:19.404Z,15.70
2022-11-17T20:58:47.194Z,16.30
2022-11-17T21:01:20.703Z,14.20
2022-11-17T21:03:48.476Z,15.00
2022-11-17T21:06:16.908Z,15.00
2022-11-17T21:08:45.690Z,15.10
2022-11-17T21:11:16.589Z,16.30
2022-11-17T21:13:44.310Z,17.70
2022-11-17T21:16:14.776Z,15.60
2022-11-17T21:18:47.195Z,16.80
2022-11-17T21:21:15.633Z,17.80
2022-11-17T21:23:44.085Z,17.00
2022-11-17T21:26:16.497Z,18.40
2022-11-17T21:28:44.486Z,18.00
2022-11-17T21:31:18.054Z,19.40
2022-11-17T21:33:46.780Z,19.60
2022-11-17T21:36:17.057Z,18.90
2022-11-17T21:38:45.612Z,18.20
2022-11-17T21:41:16.104Z,17.80
2022-11-17T21:43:45.995Z,15.50
2022-11-17T21:46:18.735Z,17.30
2022-11-17T21:48:46.771Z,17.70
2022-11-17T21:51:19.529Z,17.30
2022-11-17T21:53:48.026Z,16.60
2022-11-17T21:56:15.882Z,15.00
2022-11-17T21:58:43.634Z,17.30
2022-11-17T22:01:15.772Z,17.10
2022-11-17T22:03:43.484Z,17.10
2022-11-17T22:06:16.842Z,16.40
2022-11-17T22:08:45.896Z,15.90
2022-11-17T22:11:16.449Z,16.60
2022-11-17T22:13:44.095Z,18.00
2022-11-17T22:16:13.977Z,16.90
2022-11-17T22:18:41.887Z,16.00
2022-11-17T22:21:09.563Z,18.70
2022-11-17T22:23:37.216Z,17.60
2022-11-17T22:26:05.636Z,16.90
2022-11-17T22:28:33.330Z,17.50
2022-11-17T22:31:05.735Z,18.70
2022-11-17T22:33:33.529Z,17.20
2022-11-17T22:36:03.010Z,17.50
2022-11-17T22:38:30.645Z,18.00
2022-11-17T22:41:02.776Z,17.20
2022-11-17T22:43:30.565Z,17.60
2022-11-17T22:46:02.213Z,17.90
2022-11-17T22:50:58.929Z,16.40
2022-11-17T22:53:27.052Z,17.20
2022-11-17T22:55:55.010Z,18.80
2022-11-17T22:58:22.639Z,19.60
2022-11-17T23:00:50.238Z,17.00
2022-11-17T23:03:17.908Z,19.60
2022-11-17T23:05:45.574Z,20.70
2022-11-17T23:08:13.410Z,17.70
2022-11-17T23:10:41.091Z,19.40
2022-11-17T23:13:08.744Z,18.70
2022-11-17T23:15:38.768Z,18.00
2022-11-17T23:18:06.917Z,17.70
2022-11-17T23:20:36.602Z,19.00
2022-11-17T23:23:04.622Z,18.80
2022-11-17T23:25:32.273Z,18.20
2022-11-17T23:27:59.925Z,19.40
2022-11-17T23:30:27.590Z,19.00
2022-11-17T23:32:55.220Z,19.70
2022-11-17T23:35:23.239Z,19.10
2022-11-17T23:37:51.041Z,18.50
2022-11-17T23:40:18.865Z,17.40
2022-11-17T23:42:46.470Z,18.90
2022-11-17T23:45:14.166Z,19.00
2022-11-17T23:47:41.889Z,18.90
2022-11-17T23:50:09.756Z,19.20
2022-11-17T23:52:37.359Z,17.80
2022-11-17T23:55:05.341Z,18.90
2022-11-17T23:57:32.952Z,18.10
